createdAt,value
2022-08-11T00:01:29.418Z,2.92
2022-08-11T00:03:42.488Z,3.38
2022-08-11T00:05:46.196Z,3.40
2022-08-11T00:07:49.333Z,3.10
2022-08-11T00:09:51.711Z,2.55
2022-08-11T00:11:58.715Z,2.72
2022-08-11T00:14:00.929Z,3.00
2022-08-11T00:16:03.399Z,6.50
2022-08-11T00:18:04.977Z,2.85
2022-08-11T00:20:14.325Z,3.22
2022-08-11T00:22:21.549Z,3.30
2022-08-11T00:24:24.054Z,3.38
2022-08-11T00:26:26.687Z,3.40
2022-08-11T00:28:32.431Z,3.35
2022-08-11T00:30:40.443Z,3.00
2022-08-11T00:32:43.969Z,3.60
2022-08-11T00:34:47.066Z,3.47
2022-08-11T00:37:03.201Z,3.35
2022-08-11T00:39:06.853Z,3.42
2022-08-11T00:41:17.585Z,3.10
2022-08-11T00:43:38.171Z,3.53
2022-08-11T00:45:41.365Z,2.92
2022-08-11T00:47:55.817Z,3.72
2022-08-11T00:50:13.811Z,2.95
2022-08-11T00:52:34.355Z,3.77
2022-08-11T00:54:38.657Z,3.60
2022-08-11T00:56:58.738Z,2.85
2022-08-11T00:59:00.182Z,3.45
2022-08-11T01:01:18.414Z,2.45
2022-08-11T01:03:31.322Z,3.28
2022-08-11T01:05:51.598Z,3.05
2022-08-11T01:08:01.051Z,3.03
2022-08-11T01:10:13.599Z,4.85
2022-08-11T01:12:34.054Z,4.47
2022-08-11T01:14:35.514Z,3.85
2022-08-11T01:16:49.383Z,3.28
2022-08-11T01:19:06.762Z,3.58
2022-08-11T01:21:20.773Z,3.35
2022-08-11T01:23:28.128Z,3.45
2022-08-11T01:25:57.290Z,3.10
2022-08-11T01:28:14.245Z,3.65
2022-08-11T01:30:19.818Z,4.43
2022-08-11T01:32:21.259Z,3.67
2022-08-11T01:35:01.510Z,3.40
2022-08-11T01:37:41.497Z,3.20
2022-08-11T01:39:51.952Z,3.28
2022-08-11T01:42:18.387Z,3.58
2022-08-11T01:44:38.465Z,3.80
2022-08-11T01:46:39.930Z,3.42
2022-08-11T01:48:41.369Z,3.30
2022-08-11T01:50:42.842Z,3.20
2022-08-11T01:52:49.258Z,3.42
2022-08-11T01:55:09.225Z,3.30
2022-08-11T01:57:23.476Z,3.75
2022-08-11T01:59:31.163Z,3.50
2022-08-11T02:01:59.522Z,3.45
2022-08-11T02:04:12.270Z,2.85
2022-08-11T02:06:55.229Z,3.25
2022-08-11T02:09:06.859Z,3.58
2022-08-11T02:11:37.577Z,3.17
2022-08-11T02:13:47.490Z,2.90
2022-08-11T02:15:51.880Z,3.70
2022-08-11T02:18:05.974Z,3.15
2022-08-11T02:20:33.610Z,3.78
2022-08-11T02:22:56.767Z,3.75
2022-08-11T02:25:09.709Z,3.60
2022-08-11T02:27:17.466Z,3.47
2022-08-11T02:29:21.024Z,3.35
2022-08-11T02:32:24.002Z,3.83
2022-08-11T02:34:19.771Z,3.22
2022-08-11T02:36:22.689Z,3.75
2022-08-11T02:38:36.542Z,3.75
2022-08-11T02:40:43.993Z,3.42
2022-08-11T02:42:45.824Z,3.08
2022-08-11T02:44:54.025Z,3.60
2022-08-11T02:47:13.956Z,3.17
2022-08-11T02:49:44.738Z,3.10
2022-08-11T02:51:53.748Z,3.42
2022-08-11T02:54:01.305Z,3.30
2022-08-11T02:56:14.181Z,3.05
2022-08-11T02:58:15.772Z,3.60
2022-08-11T03:00:17.980Z,3.58
2022-08-11T03:02:24.680Z,3.08
2022-08-11T03:04:46.244Z,4.25
2022-08-11T03:06:56.425Z,3.47
2022-08-11T03:09:13.647Z,3.55
2022-08-11T03:11:36.483Z,3.85
2022-08-11T03:14:08.663Z,3.63
2022-08-11T03:16:28.866Z,3.75
2022-08-11T03:18:49.340Z,4.20
2022-08-11T03:20:59.796Z,3.58
2022-08-11T03:23:19.800Z,3.42
2022-08-11T03:25:31.704Z,3.97
2022-08-11T03:27:36.859Z,3.53
2022-08-11T03:30:02.788Z,4.35
2022-08-11T03:32:21.151Z,3.15
2022-08-11T03:34:25.259Z,3.65
2022-08-11T03:38:30.885Z,3.78
2022-08-11T03:41:06.397Z,3.95
2022-08-11T03:43:34.010Z,5.38
2022-08-11T03:45:48.756Z,4.10
2022-08-11T03:48:00.417Z,3.80
2022-08-11T03:50:26.670Z,4.45
2022-08-11T03:52:40.384Z,4.72
2022-08-11T03:55:05.171Z,4.53
2022-08-11T03:57:25.500Z,3.75
2022-08-11T03:59:30.457Z,4.30
2022-08-11T04:01:33.921Z,3.90
2022-08-11T04:03:53.282Z,4.20
2022-08-11T04:06:13.265Z,3.65
2022-08-11T04:08:26.960Z,4.88
2022-08-11T04:10:51.326Z,4.50
2022-08-11T04:13:11.815Z,5.07
2022-08-11T04:15:31.971Z,4.32
2022-08-11T04:17:52.572Z,4.70
2022-08-11T04:20:09.599Z,4.10
2022-08-11T04:22:22.864Z,4.50
2022-08-11T04:24:39.582Z,4.05
2022-08-11T04:26:41.488Z,4.07
2022-08-11T04:29:00.103Z,4.80
2022-08-11T04:31:10.759Z,5.22
2022-08-11T04:33:38.725Z,4.70
2022-08-11T04:36:06.089Z,4.50
2022-08-11T04:38:19.999Z,4.85
2022-08-11T04:40:40.131Z,4.00
2022-08-11T04:43:19.202Z,4.85
2022-08-11T04:45:20.647Z,4.40
2022-08-11T04:48:13.222Z,4.85
2022-08-11T04:50:36.356Z,5.00
2022-08-11T04:53:02.188Z,4.63
2022-08-11T04:55:43.504Z,5.25
2022-08-11T04:58:22.830Z,4.30
2022-08-11T05:01:02.191Z,4.63
2022-08-11T05:03:17.367Z,4.93
2022-08-11T05:05:30.996Z,4.53
2022-08-11T05:07:38.627Z,4.37
2022-08-11T05:09:56.215Z,4.28
2022-08-11T05:12:20.188Z,4.65
2022-08-11T05:14:46.426Z,4.90
2022-08-11T05:17:11.747Z,4.03
2022-08-11T05:19:39.346Z,4.03
2022-08-11T05:22:01.113Z,4.18
2022-08-11T05:24:39.187Z,4.30
2022-08-11T05:27:11.338Z,4.10
2022-08-11T05:29:45.077Z,5.00
2022-08-11T05:32:07.956Z,4.95
2022-08-11T05:34:30.983Z,4.72
2022-08-11T05:36:47.115Z,4.80
2022-08-11T05:39:14.955Z,3.70
2022-08-11T05:41:37.759Z,3.40
2022-08-11T05:44:19.964Z,4.05
2022-08-11T05:46:39.959Z,4.10
2022-08-11T05:49:00.239Z,4.05
2022-08-11T05:51:25.843Z,4.30
2022-08-11T05:53:50.815Z,5.18
2022-08-11T05:56:11.627Z,3.65
2022-08-11T05:58:13.387Z,3.80
2022-08-11T06:00:15.157Z,3.50
2022-08-11T06:02:17.023Z,3.22
2022-08-11T06:04:20.767Z,4.05
2022-08-11T06:06:22.496Z,3.58
2022-08-11T06:08:28.442Z,3.58
2022-08-11T06:10:33.281Z,3.97
2022-08-11T06:12:37.679Z,3.53
2022-08-11T06:14:43.467Z,4.18
2022-08-11T06:16:48.139Z,3.75
2022-08-11T06:18:49.795Z,3.13
2022-08-11T06:20:51.293Z,3.13
2022-08-11T06:22:57.627Z,3.40
2022-08-11T06:25:01.922Z,4.13
2022-08-11T06:27:12.742Z,3.88
2022-08-11T06:29:18.498Z,3.83
2022-08-11T06:31:24.186Z,3.65
2022-08-11T06:33:35.343Z,3.72
2022-08-11T06:35:46.286Z,4.55
2022-08-11T06:37:48.665Z,3.17
2022-08-11T06:40:01.643Z,2.97
2022-08-11T06:42:11.594Z,2.40
2022-08-11T06:44:13.545Z,2.25
2022-08-11T06:46:28.270Z,2.50
2022-08-11T06:48:31.680Z,2.40
2022-08-11T06:50:51.970Z,2.00
2022-08-11T06:52:53.799Z,2.67
2022-08-11T06:55:06.208Z,1.95
2022-08-11T06:57:31.058Z,2.03
2022-08-11T06:59:53.688Z,2.47
2022-08-11T07:02:13.787Z,2.72
2022-08-11T07:04:22.413Z,2.10
2022-08-11T07:06:50.756Z,1.70
2022-08-11T07:09:32.003Z,1.60
2022-08-11T07:12:11.267Z,2.17
2022-08-11T07:14:38.441Z,1.52
2022-08-11T07:16:44.459Z,1.88
2022-08-11T07:19:05.884Z,2.13
2022-08-11T07:22:01.279Z,1.45
2022-08-11T07:24:09.555Z,1.60
2022-08-11T07:26:30.335Z,1.25
2022-08-11T07:28:52.300Z,1.85
2022-08-11T07:30:58.499Z,1.77
2022-08-11T07:33:01.915Z,1.27
2022-08-11T07:35:13.240Z,1.60
2022-08-11T07:37:17.911Z,1.45
2022-08-11T07:39:21.122Z,1.40
2022-08-11T07:41:23.705Z,1.25
2022-08-11T07:45:45.829Z,1.65
2022-08-11T07:48:05.935Z,1.50
2022-08-11T07:50:27.457Z,1.67
2022-08-11T07:52:34.009Z,1.70
2022-08-11T07:54:36.648Z,1.40
2022-08-11T07:59:23.451Z,1.40
2022-08-11T08:02:05.727Z,1.10
2022-08-11T08:04:27.315Z,1.67
2022-08-11T08:06:48.303Z,1.50
2022-08-11T08:09:08.499Z,1.90
2022-08-11T08:11:28.782Z,1.80
2022-08-11T08:13:51.164Z,0.95
2022-08-11T08:16:11.953Z,1.35
2022-08-11T08:18:26.657Z,1.13
2022-08-11T08:20:40.357Z,1.27
2022-08-11T08:24:47.550Z,1.20
2022-08-11T08:26:58.783Z,1.27
2022-08-11T08:29:23.996Z,1.10
2022-08-11T08:31:25.992Z,1.15
2022-08-11T08:33:28.688Z,1.50
2022-08-11T08:35:32.830Z,0.93
2022-08-11T08:37:45.777Z,1.35
2022-08-11T08:39:49.272Z,1.00
2022-08-11T08:41:53.391Z,1.05
2022-08-11T08:44:09.951Z,1.10
2022-08-11T08:46:22.143Z,1.33
2022-08-11T08:48:25.809Z,1.45
2022-08-11T08:50:50.346Z,0.90
2022-08-11T08:52:59.842Z,1.25
2022-08-11T08:55:05.834Z,1.20
2022-08-11T08:57:08.320Z,1.05
2022-08-11T08:59:10.969Z,1.30
2022-08-11T09:01:14.517Z,1.20
2022-08-11T09:03:40.937Z,1.00
2022-08-11T09:05:38.120Z,1.23
2022-08-11T09:07:40.787Z,1.02
2022-08-11T09:09:44.014Z,1.20
2022-08-11T09:11:50.373Z,1.40
2022-08-11T09:14:04.886Z,1.02
2022-08-11T09:16:09.477Z,1.25
2022-08-11T09:18:12.129Z,1.63
2022-08-11T09:20:25.269Z,1.13
2022-08-11T09:22:46.488Z,1.52
2022-08-11T09:25:07.165Z,1.55
2022-08-11T09:27:10.466Z,0.95
2022-08-11T09:29:12.567Z,1.30
2022-08-11T09:31:15.460Z,1.35
2022-08-11T09:33:17.832Z,1.33
2022-08-11T09:35:21.091Z,1.65
2022-08-11T09:37:55.779Z,1.20
2022-08-11T09:40:17.518Z,1.10
2022-08-11T09:42:23.218Z,1.08
2022-08-11T09:44:44.277Z,1.38
2022-08-11T09:46:46.398Z,1.40
2022-08-11T09:50:51.075Z,1.80
2022-08-11T09:53:35.058Z,1.58
2022-08-11T09:55:15.000Z,1.42
2022-08-11T09:57:38.955Z,1.45
2022-08-11T09:59:41.270Z,1.20
2022-08-11T10:01:48.206Z,1.20
2022-08-11T10:03:49.882Z,1.92
2022-08-11T10:06:13.005Z,1.02
2022-08-11T10:08:17.198Z,1.10
2022-08-11T10:10:22.853Z,1.27
2022-08-11T10:12:32.463Z,1.58
2022-08-11T10:14:52.627Z,1.20
2022-08-11T10:16:54.601Z,1.00
2022-08-11T10:20:58.916Z,1.50
2022-08-11T10:23:19.592Z,1.17
2022-08-11T10:25:40.374Z,1.25
2022-08-11T10:28:29.086Z,1.35
2022-08-11T10:30:23.361Z,1.70
2022-08-11T10:32:59.258Z,1.38
2022-08-11T10:35:02.552Z,1.55
2022-08-11T10:37:04.937Z,1.33
2022-08-11T10:39:06.799Z,1.42
2022-08-11T10:41:28.126Z,1.27
2022-08-11T10:44:01.415Z,1.15
2022-08-11T10:46:09.629Z,1.10
2022-08-11T10:48:15.333Z,1.42
2022-08-11T10:50:35.874Z,1.83
2022-08-11T10:52:56.880Z,1.50
2022-08-11T10:55:17.120Z,1.40
2022-08-11T10:57:37.925Z,1.20
2022-08-11T10:59:43.371Z,1.42
2022-08-11T11:01:52.125Z,1.63
2022-08-11T11:04:01.205Z,1.50
2022-08-11T11:06:30.085Z,1.73
2022-08-11T11:09:03.781Z,1.95
2022-08-11T11:11:10.107Z,1.77
2022-08-11T11:13:40.355Z,1.48
2022-08-11T11:16:13.517Z,1.52
2022-08-11T11:18:19.347Z,1.23
2022-08-11T11:20:37.003Z,1.50
2022-08-11T11:22:41.473Z,1.33
2022-08-11T11:24:53.710Z,1.10
2022-08-11T11:26:59.949Z,1.27
2022-08-11T11:29:08.242Z,1.08
2022-08-11T11:31:29.139Z,1.17
2022-08-11T11:33:57.429Z,1.42
2022-08-11T11:36:06.666Z,1.50
2022-08-11T11:38:13.818Z,1.70
2022-08-11T11:40:16.918Z,1.35
2022-08-11T11:42:19.347Z,1.80
2022-08-11T11:44:22.775Z,1.20
2022-08-11T11:46:30.025Z,1.42
2022-08-11T11:48:32.414Z,1.05
2022-08-11T11:50:37.239Z,1.25
2022-08-11T11:52:39.790Z,1.50
2022-08-11T11:54:42.067Z,1.23
2022-08-11T11:56:45.533Z,1.45
2022-08-11T11:59:06.167Z,1.67
2022-08-11T12:01:16.132Z,1.38
2022-08-11T12:03:18.457Z,1.40
2022-08-11T12:07:40.423Z,1.60
2022-08-11T12:09:42.192Z,1.48
2022-08-11T12:12:03.315Z,1.60
2022-08-11T12:14:10.646Z,1.50
2022-08-11T12:16:33.231Z,1.40
2022-08-11T12:20:37.391Z,1.17
2022-08-11T12:22:57.676Z,1.40
2022-08-11T12:25:18.853Z,1.35
2022-08-11T12:27:24.224Z,1.20
2022-08-11T12:29:27.663Z,1.38
2022-08-11T12:31:30.122Z,1.02
2022-08-11T12:33:33.292Z,1.20
2022-08-11T12:35:36.944Z,1.08
2022-08-11T12:37:52.583Z,1.25
2022-08-11T12:40:43.711Z,1.90
2022-08-11T12:42:58.976Z,1.15
2022-08-11T12:45:22.042Z,1.60
2022-08-11T12:47:25.156Z,1.48
2022-08-11T12:52:12.897Z,1.30
2022-08-11T12:54:22.932Z,1.30
2022-08-11T12:56:44.265Z,1.10
2022-08-11T12:58:47.876Z,1.42
2022-08-11T13:01:10.227Z,1.50
2022-08-11T13:03:33.082Z,1.35
2022-08-11T13:05:38.881Z,1.48
2022-08-11T13:07:49.860Z,1.10
2022-08-11T13:09:53.731Z,1.08
2022-08-11T13:12:13.594Z,1.50
2022-08-11T13:14:16.321Z,1.20
2022-08-11T13:18:23.233Z,1.20
2022-08-11T13:20:24.844Z,1.27
2022-08-11T13:22:26.566Z,1.25
2022-08-11T13:24:28.730Z,2.10
2022-08-11T13:26:43.629Z,1.20
2022-08-11T13:28:51.983Z,1.35
2022-08-11T13:31:11.758Z,1.42
2022-08-11T13:33:13.833Z,1.20
2022-08-11T13:35:16.028Z,1.33
2022-08-11T13:37:20.052Z,1.52
2022-08-11T13:39:47.299Z,1.50
2022-08-11T13:41:49.438Z,1.58
2022-08-11T13:43:52.785Z,1.42
2022-08-11T13:46:15.559Z,1.20
2022-08-11T13:48:17.139Z,1.60
2022-08-11T13:50:19.408Z,1.42
2022-08-11T13:52:21.048Z,1.45
2022-08-11T13:54:26.734Z,1.20
2022-08-11T13:56:28.986Z,1.60
2022-08-11T13:58:40.308Z,1.80
2022-08-11T14:00:52.612Z,1.65
2022-08-11T14:02:56.136Z,1.30
2022-08-11T14:05:10.067Z,1.42
2022-08-11T14:07:16.346Z,1.60
2022-08-11T14:09:25.308Z,1.20
2022-08-11T14:12:22.125Z,1.30
2022-08-11T14:14:09.535Z,1.38
2022-08-11T14:16:20.728Z,1.17
2022-08-11T14:18:23.766Z,1.15
2022-08-11T14:20:45.286Z,1.15
2022-08-11T14:22:47.258Z,1.35
2022-08-11T14:24:49.663Z,1.15
2022-08-11T14:26:51.783Z,1.52
2022-08-11T14:28:55.203Z,1.67
2022-08-11T14:31:01.150Z,1.23
2022-08-11T14:33:16.629Z,1.55
2022-08-11T14:35:19.203Z,1.65
2022-08-11T14:37:22.238Z,1.27
2022-08-11T14:42:10.736Z,1.58
2022-08-11T14:44:24.764Z,1.70
2022-08-11T14:46:45.307Z,1.25
2022-08-11T14:48:46.979Z,1.40
2022-08-11T14:50:48.750Z,1.90
2022-08-11T14:52:52.310Z,1.60
2022-08-11T14:55:12.990Z,1.15
2022-08-11T14:57:15.575Z,1.45
2022-08-11T14:59:17.112Z,2.25
2022-08-11T15:01:37.596Z,1.60
2022-08-11T15:03:39.112Z,1.35
2022-08-11T15:06:02.250Z,1.70
2022-08-11T15:08:03.995Z,1.63
2022-08-11T15:10:13.071Z,1.63
2022-08-11T15:12:32.847Z,1.80
2022-08-11T15:14:56.032Z,1.40
2022-08-11T15:17:10.031Z,1.88
2022-08-11T15:19:12.847Z,1.23
2022-08-11T15:21:33.487Z,1.35
2022-08-11T15:23:53.889Z,1.33
2022-08-11T15:26:15.641Z,1.30
2022-08-11T15:28:37.198Z,1.52
2022-08-11T15:30:57.045Z,1.48
2022-08-11T15:33:17.402Z,1.25
2022-08-11T15:35:39.288Z,1.85
2022-08-11T15:37:43.276Z,1.58
2022-08-11T15:40:08.468Z,1.48
2022-08-11T15:42:49.182Z,1.95
2022-08-11T15:45:13.027Z,1.30
2022-08-11T15:49:23.686Z,1.83
2022-08-11T15:51:33.170Z,1.90
2022-08-11T15:53:46.350Z,1.30
2022-08-11T15:58:21.276Z,1.45
2022-08-11T16:00:41.633Z,1.50
2022-08-11T16:03:16.386Z,1.63
2022-08-11T16:05:45.742Z,1.83
2022-08-11T16:07:41.605Z,1.63
2022-08-11T16:10:00.161Z,1.98
2022-08-11T16:12:03.762Z,1.67
2022-08-11T16:16:25.916Z,1.88
2022-08-11T16:18:40.892Z,1.95
2022-08-11T16:20:43.595Z,1.50
2022-08-11T16:22:57.065Z,2.10
2022-08-11T16:27:05.192Z,1.42
2022-08-11T16:27:26.990Z,1.73
2022-08-11T16:29:31.702Z,2.15
2022-08-11T16:31:34.014Z,1.95
2022-08-11T16:33:48.841Z,1.77
2022-08-11T16:36:12.376Z,2.30
2022-08-11T16:38:33.108Z,2.28
2022-08-11T16:40:35.708Z,1.98
2022-08-11T16:43:04.563Z,1.90
2022-08-11T16:45:30.640Z,2.08
2022-08-11T16:48:03.379Z,2.15
2022-08-11T16:49:55.593Z,2.45
2022-08-11T16:51:57.268Z,2.22
2022-08-11T16:54:05.562Z,1.65
2022-08-11T16:56:08.297Z,2.28
2022-08-11T16:58:29.733Z,2.13
2022-08-11T17:00:33.272Z,1.60
2022-08-11T17:02:58.497Z,1.35
2022-08-11T17:05:21.287Z,1.80
2022-08-11T17:07:43.376Z,2.05
2022-08-11T17:10:05.753Z,1.60
2022-08-11T17:12:48.727Z,1.83
2022-08-11T17:14:59.071Z,1.40
2022-08-11T17:17:01.747Z,1.45
2022-08-11T17:19:09.206Z,1.70
2022-08-11T17:21:22.892Z,1.90
2022-08-11T17:26:03.623Z,1.40
2022-08-11T17:28:06.913Z,1.42
2022-08-11T17:30:09.561Z,1.17
2022-08-11T17:32:57.130Z,2.33
2022-08-11T17:35:34.182Z,1.52
2022-08-11T17:37:36.591Z,1.77
2022-08-11T17:39:38.734Z,1.67
2022-08-11T17:41:59.212Z,1.70
2022-08-11T17:44:19.951Z,1.70
2022-08-11T17:46:41.053Z,1.65
2022-08-11T17:48:47.812Z,1.75
2022-08-11T17:50:50.969Z,1.70
2022-08-11T17:53:11.153Z,1.52
2022-08-11T17:55:52.057Z,1.35
2022-08-11T17:58:12.633Z,1.35
2022-08-11T18:00:14.715Z,1.77
2022-08-11T18:02:36.223Z,1.83
2022-08-11T18:04:37.771Z,1.52
2022-08-11T18:06:40.524Z,1.60
2022-08-11T18:09:02.212Z,1.60
2022-08-11T18:12:09.861Z,1.67
2022-08-11T18:14:03.878Z,1.73
2022-08-11T18:16:24.163Z,1.73
2022-08-11T18:18:44.363Z,1.77
2022-08-11T18:21:05.028Z,1.50
2022-08-11T18:23:41.765Z,2.10
2022-08-11T18:26:07.979Z,1.90
2022-08-11T18:28:29.911Z,1.70
2022-08-11T18:30:51.840Z,2.33
2022-08-11T18:36:06.334Z,1.73
2022-08-11T18:38:28.688Z,1.80
2022-08-11T18:40:55.615Z,1.45
2022-08-11T18:43:16.844Z,1.90
2022-08-11T18:45:46.079Z,2.55
2022-08-11T18:48:09.320Z,2.67
2022-08-11T18:50:38.713Z,1.92
2022-08-11T18:53:01.680Z,2.40
2022-08-11T18:55:22.411Z,1.63
2022-08-11T18:57:53.999Z,2.20
2022-08-11T19:00:16.847Z,2.03
2022-08-11T19:02:49.255Z,1.95
2022-08-11T19:05:10.834Z,2.00
2022-08-11T19:07:31.508Z,2.08
2022-08-11T19:09:53.668Z,2.05
2022-08-11T19:12:15.672Z,1.90
2022-08-11T19:14:36.323Z,1.67
2022-08-11T19:16:56.898Z,1.52
2022-08-11T19:19:17.206Z,1.52
2022-08-11T19:21:37.443Z,2.28
2022-08-11T19:24:00.497Z,1.73
2022-08-11T19:26:21.533Z,1.63
2022-08-11T19:28:41.510Z,1.88
2022-08-11T19:31:02.079Z,2.00
2022-08-11T19:33:59.824Z,1.90
2022-08-11T19:36:03.101Z,2.05
2022-08-11T19:38:23.253Z,1.90
2022-08-11T19:40:43.980Z,2.75
2022-08-11T19:43:11.219Z,1.90
2022-08-11T19:45:43.694Z,2.30
2022-08-11T19:48:30.617Z,2.25
2022-08-11T19:50:47.329Z,2.25
2022-08-11T19:53:17.341Z,2.05
2022-08-11T19:55:38.277Z,2.10
2022-08-11T19:58:01.135Z,2.00
2022-08-11T20:00:34.041Z,1.88
2022-08-11T20:02:54.318Z,1.85
2022-08-11T20:05:14.391Z,2.05
2022-08-11T20:07:34.842Z,2.17
2022-08-11T20:10:01.243Z,2.40
2022-08-11T20:12:27.235Z,2.00
2022-08-11T20:14:50.899Z,2.15
2022-08-11T20:17:12.886Z,2.13
2022-08-11T20:19:55.102Z,2.10
2022-08-11T20:22:20.184Z,2.00
2022-08-11T20:24:45.261Z,2.10
2022-08-11T20:27:24.309Z,2.28
2022-08-11T20:29:51.636Z,2.25
2022-08-11T20:32:16.277Z,2.40
2022-08-11T20:34:39.660Z,2.13
2022-08-11T20:37:03.314Z,2.58
2022-08-11T20:39:27.045Z,2.75
2022-08-11T20:41:58.420Z,2.17
2022-08-11T20:44:21.115Z,2.35
2022-08-11T20:46:42.103Z,2.67
2022-08-11T20:49:03.459Z,2.10
2022-08-11T20:51:25.052Z,2.17
2022-08-11T20:53:47.103Z,2.63
2022-08-11T20:56:07.626Z,2.22
2022-08-11T20:58:49.116Z,2.83
2022-08-11T21:01:19.057Z,2.25
2022-08-11T21:03:54.870Z,2.45
2022-08-11T21:06:31.142Z,2.58
2022-08-11T21:08:54.323Z,3.05
2022-08-11T21:11:14.234Z,3.03
2022-08-11T21:13:51.284Z,3.17
2022-08-11T21:16:18.347Z,2.30
2022-08-11T21:18:47.914Z,2.80
2022-08-11T21:21:08.857Z,2.85
2022-08-11T21:23:37.228Z,3.05
2022-08-11T21:26:02.031Z,3.17
2022-08-11T21:28:22.963Z,2.67
2022-08-11T21:30:44.589Z,2.85
2022-08-11T21:33:04.972Z,2.58
2022-08-11T21:35:26.212Z,3.40
2022-08-11T21:37:50.191Z,3.25
2022-08-11T21:40:16.352Z,3.85
2022-08-11T21:42:38.333Z,2.85
2022-08-11T21:45:00.155Z,3.13
2022-08-11T21:47:42.504Z,2.90
2022-08-11T21:50:02.222Z,3.10
2022-08-11T21:52:22.847Z,3.13
2022-08-11T21:54:43.392Z,2.92
2022-08-11T21:57:04.615Z,4.03
2022-08-11T21:59:25.052Z,3.47
2022-08-11T22:01:46.323Z,3.35
2022-08-11T22:04:06.971Z,2.83
2022-08-11T22:06:27.032Z,3.70
2022-08-11T22:08:47.290Z,3.70
2022-08-11T22:11:08.028Z,3.47
2022-08-11T22:13:29.553Z,4.05
2022-08-11T22:15:49.700Z,3.70
2022-08-11T22:18:09.971Z,4.53
2022-08-11T22:20:30.703Z,4.25
2022-08-11T22:22:52.965Z,3.38
2022-08-11T22:25:16.465Z,3.47
2022-08-11T22:27:39.005Z,4.07
2022-08-11T22:29:59.034Z,3.70
2022-08-11T22:32:19.706Z,3.05
2022-08-11T22:34:51.231Z,3.80
2022-08-11T22:37:26.806Z,2.75
2022-08-11T22:40:01.728Z,4.10
2022-08-11T22:42:24.065Z,3.88
2022-08-11T22:44:54.087Z,3.13
2022-08-11T22:47:18.404Z,3.83
2022-08-11T22:49:56.214Z,3.70
2022-08-11T22:52:18.759Z,3.53
2022-08-11T22:54:39.319Z,3.30
2022-08-11T22:56:59.470Z,3.88
2022-08-11T22:59:20.274Z,3.28
2022-08-11T23:01:40.430Z,3.55
2022-08-11T23:04:16.938Z,3.75
2022-08-11T23:06:40.682Z,3.75
2022-08-11T23:09:01.331Z,3.47
2022-08-11T23:11:22.704Z,3.90
2022-08-11T23:13:42.933Z,3.42
2022-08-11T23:16:03.369Z,3.88
2022-08-11T23:18:23.597Z,4.00
2022-08-11T23:20:44.958Z,3.45
2022-08-11T23:23:18.505Z,4.97
2022-08-11T23:25:39.983Z,4.35
2022-08-11T23:28:00.623Z,4.13
2022-08-11T23:30:20.552Z,4.47
2022-08-11T23:32:41.831Z,3.72
2022-08-11T23:35:40.026Z,3.95
2022-08-11T23:37:46.114Z,4.43
2022-08-11T23:40:06.398Z,4.88
2022-08-11T23:42:26.670Z,4.40
2022-08-11T23:44:48.362Z,4.40
2022-08-11T23:47:08.685Z,4.60
2022-08-11T23:49:29.753Z,4.55
2022-08-11T23:51:50.364Z,4.75
2022-08-11T23:54:10.645Z,5.40
2022-08-11T23:56:31.687Z,4.93
2022-08-11T23:58:53.016Z,4.45
